Tiempo atmosférico en la estación meteorológica de Fuerteventura Aeropuerto, Las Palmas (25 m.)



Fecha
DESCASC
Temp. máxima en grados centígrados (hora)
DESCASC
Temp. mínima en grados centígrados (hora)
DESCASC
Temp. media en grados centígrados
DESCASC
Racha de viento máxima en m/sg (hora)
DESCASC
Velocidad máxima media en intervalos de 10 minutos(hora)
DESCASC
Precipitaciones diarias en mm
DESCASC
Precipitaciones de 00:00 a 06:00 en mm
DESCASC
Precipitaciones de 06:00 a 12:00 en mm
DESCASC
Precipitaciones de 12:00 a 18:00 en mm
DESCASC
Precipitaciones de 18:00 a 24:00 en mm
DESCASC
18-08-2019 28.6 (13:00) 21.9 (07:40) 25.3 12.78 (03:30) 9.44 (16:20) 0 0 0 0 0
17-08-2019 31.5 (12:30) 23.4 (23:59) 27.4 14.44 (15:10) 10.28 (15:10) 0 0 0 0 0
16-08-2019 30.7 (14:00) 24.3 (02:20) 27.5 14.44 (11:40) 11.67 (12:40) 0 0 0 0 0
15-08-2019 26.7 (14:40) 22.1 (00:00) 24.4 11.39 (14:50) 9.17 (16:20) 0 0 0 0 0
14-08-2019 28.6 (12:50) 21.4 (00:00) 25 12.5 (13:00) 9.17 (13:00) 0 0 0 0 0
13-08-2019 28.3 (17:30) 20.6 (00:00) 24.4 15 (19:50) 10.83 (19:40) 0 0 0 0 0
12-08-2019 28.5 (17:30) 21.6 (00:00) 25.1 15 (18:50) 12.22 (18:50) 0 0 0 0 0
11-08-2019 26.7 (14:20) 22.2 (00:00) 24.5 12.78 (19:50) 10.83 (20:00) 0 0 0 0 0
10-08-2019 27.1 (15:40) 21.4 (00:00) 24.3 12.78 (15:50) 10.28 (21:50) 0 0 0 0 0
09-08-2019 25.5 (15:40) 21.6 (00:00) 23.6 9.17 (07:10) 7.5 (11:00) 0 0 0 0 0
08-08-2019 25.3 (16:20) 21.5 (00:00) 23.4 9.17 (03:20) 6.94 (10:10) 0 0 0 0 0
07-08-2019 25.7 (14:50) 20.8 (00:00) 23.3 11.67 (11:20) 8.89 (11:20) 0 0 0 0 0
06-08-2019 29.1 (16:40) 21.7 (00:00) 25.4 12.78 (03:40) 10.28 (08:50) 0 0 0 0 0
05-08-2019 26.2 (19:30) 22.1 (00:00) 24.2 16.39 (02:40) 9.44 (01:00) 0 0 0 0 0
04-08-2019 26.1 (15:10) 21 (00:00) 23.6 16.11 (20:40) 10 (09:20) 0 0 0 0 0
03-08-2019 26.6 (15:40) 21.1 (00:00) 23.9 12.5 (16:30) 9.17 (17:30) 0 0 0 0 0
02-08-2019 27.7 (18:00) 21.5 (00:00) 24.6 12.78 (18:40) 9.17 (20:30) 0 0 0 0 0
01-08-2019 27.4 (17:50) 20.5 (00:00) 23.9 12.78 (16:40) 9.72 (16:30) 0 0 0 0 0
31-07-2019 27.7 (14:30) 20.3 (00:00) 24 15 (09:50) 11.11 (10:20) 0 0 0 0 0
30-07-2019 27.6 (15:50) 21.5 (00:00) 24.6 16.94 (18:40) 12.78 (18:50) 0 0 0 0 0
29-07-2019 28.4 (16:50) 21.8 (00:00) 25.1 15 (17:10) 10.83 (17:00) 0 0 0 0 0
28-07-2019 27.7 (14:10) 21.8 (00:00) 24.8 13.33 (15:00) 10.56 (15:00) 0 0 0 0 0
27-07-2019 25.6 (14:30) 20.7 (00:00) 23.2 12.5 (08:10) 10 (17:10) 0 0 0 0 0
26-07-2019 25.9 (14:10) 21.6 (00:00) 23.8 14.44 (17:30) 10.83 (17:30) 0 0 0 0 0
25-07-2019 25.9 (15:00) 20.9 (00:00) 23.4 11.67 (15:10) 9.72 (15:10) 0 0 0 0 0
24-07-2019 25.7 (14:30) 21.1 (00:00) 23.4 12.5 (16:00) 9.17 (15:50) 0 0 0 0 0

Gráficas

Temp. máximas Temp. mínimas Temp. medias Precipitaciones Rachas de viento máximas Velocidades máximas media en intervalos de 10 minutos

Datos horarios

Fecha y hora oficial Temperatura (ºC) Velocidad del viento (km/h) Dirección del viento Racha (km/h) Dirección de racha Precipitación (mm) Presión (hPa) Tendencia (hPa) Humedad (%)
2019-08-22 23:00:00 23.5 19 Norte 28 Norte 0 1009.3 1.4 77
2019-08-22 22:00:00 24.3 18 Norte 28 Norte 0 1008.6 1 69
2019-08-22 21:00:00 25 20 Norte 33 Norte 0 1008.3 0.5 67
2019-08-22 20:00:00 26.2 24 Norte 37 Norte 0 1007.9 -0.2 64
2019-08-22 19:00:00 27.6 28 Norte 39 Norte 0 1007.6 -0.7 59
2019-08-22 18:00:00 25.6 27 Nordeste 37 Nordeste 0 1007.8 -1.1 76
2019-08-22 17:00:00 25.9 28 Nordeste 39 Nordeste 0 1008.1 -1.1 74
2019-08-22 16:00:00 25.9 30 Nordeste 41 Nordeste 0 1008.3 -1.4 73
2019-08-22 15:00:00 26 32 Nordeste 41 Nordeste 0 1008.9 -0.8 72
2019-08-22 14:00:00 25.3 28 Nordeste 35 Nordeste 0 1009.2 -0.4 76
2019-08-22 13:00:00 24.9 25 Nordeste 37 Norte 0 1009.7 0.4 76
2019-08-22 12:00:00 27.6 27 Norte 37 Norte 0 1009.7 -0.1 54
2019-08-22 11:00:00 27.5 28 Norte 39 Norte 0 1009.6 0 51
2019-08-22 10:00:00 24 30 Norte 41 Norte 0 1009.3 0.4 71
2019-08-22 09:00:00 22.6 21 Norte 32 Nordeste 0 1009.8 1.3 77
2019-08-22 08:00:00 21.2 22 Norte 32 Norte 0 1009.6 1 80
2019-08-22 07:00:00 21.1 25 Norte 32 Norte 0 1008.9 -0.3 80
2019-08-22 06:00:00 21.2 22 Norte 33 Norte 0 1008.5 -1.2 78
2019-08-22 05:00:00 21.2 25 Norte 32 Norte 0 1008.6 -1.5 80
2019-08-22 04:00:00 21.2 19 Norte 30 Norte 0 1009.2 -1.4 79
2019-08-22 03:00:00 21.4 21 Norte 32 Norte 0 1009.7 -1.2 78
2019-08-22 02:00:00 21.7 25 Norte 37 Norte 0 1010.1 -1.3 76
2019-08-22 01:00:00 21.9 24 Norte 39 Norte 0 1010.6 -0.5 76
2019-08-22 00:00:00 22.1 26 Norte 35 Norte 0 1010.9 0.2 76
2019-08-21 23:00:00 22.4 23 Norte 42 Norte 0 1011.4 1.2 75
2019-08-21 22:00:00 22.9 27 Norte 45 Norte 0 1011.1 0.9 73
2019-08-21 21:00:00 23.4 32 Norte 46 Norte 0 1010.7 0.3 70
2019-08-21 20:00:00 24.8 33 Norte 48 Norte 0 1010.2 -0.2 65
2019-08-21 19:00:00 26.2 36 Norte 48 Norte 0 1010.2 -0.7 59
2019-08-21 18:00:00 24.9 31 Nordeste 42 Nordeste 0 1010.4 -1 75
2019-08-21 17:00:00 25.3 35 Nordeste 46 Nordeste 0 1010.4 -1.6 71
2019-08-21 16:00:00 25.5 33 Nordeste 45 Nordeste 0 1010.9 -1.6 70
2019-08-21 15:00:00 25.5 34 Nordeste 42 Nordeste 0 1011.4 -1.4 69
2019-08-21 14:00:00 25.6 36 Nordeste 46 Nordeste 0 1012 -0.8 67
2019-08-21 13:00:00 25.4 36 Nordeste 46 Nordeste 0 1012.5 -0.2 69
2019-08-21 12:00:00 25.5 30 Nordeste 45 Nordeste 0 1012.8 0.2 66
2019-08-21 11:00:00 24.6 30 Nordeste 45 Norte 0 1012.8 0.5 68
2019-08-21 10:00:00 23.9 29 Norte 42 Norte 0 1012.7 0.6 70
2019-08-21 09:00:00 22.5 35 Norte 45 Norte 0 1012.6 0.5 74
2019-08-21 08:00:00 21.3 27 Norte 37 Norte 0 1012.3 -0.1 79
2019-08-21 07:00:00 21 27 Norte 39 Norte 0 1012.1 -0.2 82
2019-08-21 06:00:00 20.9 26 Norte 33 Norte 0 1012.1 -0.2 83
2019-08-21 05:00:00 21 23 Norte 35 Norte 0 1012.4 -0.4 82
2019-08-21 04:00:00 21.2 25 Norte 37 Norte 0 1012.3 -1 79
2019-08-21 03:00:00 21.3 26 Norte 37 Norte 0 1012.3 -1.3 78
2019-08-21 02:00:00 21.5 26 Norte 33 Norte 0 1012.8 -0.9 77
2019-08-21 01:00:00 21.7 25 Norte 33 Norte 0 1013.3 -0.1 76
2019-08-21 00:00:00 22 22 Norte 35 Norte 0 1013.6 0.4 76
2019-08-20 23:00:00 22.4 25 Norte 30 Norte 0 1013.7 0.8 75
2019-08-20 22:00:00 22.5 22 Norte 33 Nordeste 0 1013.4 0.7 85
2019-08-20 21:00:00 22.7 27 Nordeste 35 Nordeste 0 1013.2 0.4 85
2019-08-20 20:00:00 23.4 28 Nordeste 41 Nordeste 0 1012.9 0.3 81
2019-08-20 19:00:00 24.2 30 Nordeste 41 Nordeste 0 1012.7 -0.1 77
2019-08-20 18:00:00 25.1 29 Nordeste 41 Nordeste 0 1012.8 -0.6 73
2019-08-20 17:00:00 25.5 33 Nordeste 42 Nordeste 0 1012.6 -1 71
2019-08-20 16:00:00 26.1 32 Nordeste 42 Nordeste 0 1012.8 -1.2 68
2019-08-20 15:00:00 26.1 29 Nordeste 39 Nordeste 0 1013.4 -0.8 68
2019-08-20 14:00:00 26.1 26 Nordeste 33 Nordeste 0 1013.6 -0.3 68
2019-08-20 13:00:00 25.4 25 Nordeste 30 Nordeste 0 1014 0.5 73
2019-08-20 12:00:00 25.3 18 Nordeste 32 Norte 0 1014.2 1 73
2019-08-20 11:00:00 25.1 26 Nordeste 41 Nordeste 0 1013.9 1.2 69
2019-08-20 10:00:00 24.8 31 Norte 41 Norte 0 1013.5 1 68
2019-08-20 09:00:00 23.3 28 Norte 35 Norte 0 1013.2 1.1 71
2019-08-20 08:00:00 20.7 15 Norte 22 Norte 0 1012.7 0.4 82
2019-08-20 07:00:00 20.6 15 Norte 28 Norte 0 1012.5 -0.2 86
2019-08-20 06:00:00 21.2 22 Norte 41 Norte 0 1012.1 -1.1 85
2019-08-20 05:00:00 21.3 28 Norte 41 Nordeste 0 1012.3 -1.4 85
2019-08-20 04:00:00 21.6 30 Nordeste 45 Nordeste 0 1012.7 -1.6 85
2019-08-20 03:00:00 21.6 33 Nordeste 45 Nordeste 0 1013.2 -1.3 86
2019-08-20 02:00:00 21.6 34 Nordeste 42 Nordeste 0 1013.7 -0.5 88
2019-08-20 01:00:00 21.7 32 Nordeste 41 Nordeste 0 1014.3 0.9 88
2019-08-20 00:00:00 21.9 27 Nordeste 35 Nordeste 0 1014.5 1.5 89
2019-08-19 23:00:00 22.2 22 Nordeste 30 Nordeste 0 1014.2 1.7 88
2019-08-19 22:00:00 22.6 26 Nordeste 37 Nordeste 0 1013.4 1 89
2019-08-19 21:00:00 22.9 21 Norte 32 Nordeste 0 1013 0.7 87
2019-08-19 20:00:00 23.6 22 Nordeste 32 Norte 0 1012.5 0.1 83
2019-08-19 19:00:00 24.4 25 Norte 33 Norte 0 1012.4 -0.2 78
2019-08-19 18:00:00 25 25 Norte 33 Norte 0 1012.3 -0.5 76
2019-08-19 17:00:00 25.1 22 Nordeste 30 Nordeste 0 1012.4 -0.9 76
2019-08-19 16:00:00 25.3 21 Nordeste 30 Nordeste 0 1012.6 -0.6 75
2019-08-19 15:00:00 25.2 22 Nordeste 32 Norte 0 1012.8 -0.6 75
2019-08-19 14:00:00 25.3 25 Nordeste 39 Nordeste 0 1013.3 0.2 74
2019-08-19 13:00:00 25.1 28 Nordeste 37 Nordeste 0 1013.2 0.6 75
2019-08-19 12:00:00 25.1 28 Nordeste 39 Nordeste 0 1013.4 1.1 76
2019-08-19 11:00:00 24.4 29 Nordeste 41 Nordeste 0 1013.1 1.4 79
2019-08-19 10:00:00 23.5 29 Norte 39 Norte 0 1012.6 1.5 83
2019-08-19 09:00:00 22.2 13 Norte 28 Nordeste 0 1012.3 1.1 86
2019-08-19 08:00:00 22 21 Nordeste 30 Nordeste 0 1011.7 0.9 91
2019-08-19 07:00:00 21 11 Noroeste 17 Norte 0 1011.1 0.1 86
2019-08-19 06:00:00 20.9 7 Noroeste 24 Nordeste 0 1011.2 0 88
2019-08-19 05:00:00 21.8 21 Nordeste 32 Nordeste 0 1010.8 -0.9 91
2019-08-19 04:00:00 21.9 23 Nordeste 32 Norte 0 1011 -1 91
2019-08-19 03:00:00 22 27 Norte 41 Nordeste 0 1011.2 -0.7 91
2019-08-19 02:00:00 22.3 22 Norte 35 Norte 0 1011.7 0 88
2019-08-19 01:00:00 22.6 22 Norte 30 Norte 0 1012 0.9 86
2019-08-19 00:00:00 23 16 Norte 22 Norte 0 1011.9 1.6 83
2019-08-18 23:00:00 23.3 9 Nordeste 22 Nordeste 0 1011.7 2 80
2019-08-18 22:00:00 23.9 14 Nordeste 26 Norte 0 1011.1 1.3 78
2019-08-18 21:00:00 24.4 18 Nordeste 32 Norte 0 1010.3 0.3 76
2019-08-18 20:00:00 25.2 25 Norte 35 Norte 0 1009.7 -0.9 71
2019-08-18 19:00:00 25.9 27 Norte 46 Norte 0 1009.8 -1 69
2019-08-18 18:00:00 26.5 29 Norte 39 Norte 0 1010 -1.2 66
2019-08-18 17:00:00 26.4 28 Nordeste 46 Norte 0 1010.6 -0.7 68
2019-08-18 16:00:00 26.8 29 Nordeste 42 Nordeste 0 1010.8 -0.6 66
2019-08-18 15:00:00 27 30 Nordeste 37 Norte 0 1011.2 -0.3 65
2019-08-18 14:00:00 27.5 28 Norte 41 Nordeste 0 1011.3 -0.1 63
2019-08-18 13:00:00 28.2 31 Norte 42 Norte 0 1011.4 0.6 58
2019-08-18 12:00:00 26.2 25 Nordeste 41 Nordeste 0 1011.5 2 71
2019-08-18 11:00:00 26.5 15 Nordeste 26 Norte 0 1011.4 2.1 65
2019-08-18 10:00:00 26.4 16 Nordeste 30 Nordeste 0 1010.8 2 61
2019-08-18 09:00:00 25.3 21 Norte 30 Norte 0 1009.5 0.5 63
2019-08-18 08:00:00 22.1 10 Norte 22 Norte 0 1009.3 -0.1 85
2019-08-18 07:00:00 22.4 22 Norte 32 Norte 0 1008.8 -0.9 85
2019-08-18 06:00:00 22.7 25 Norte 35 Norte 0 1009 -0.8 81
2019-08-18 05:00:00 22.9 23 Norte 42 Norte 0 1009.4 -0.8 79
2019-08-18 04:00:00 23 26 Norte 46 Norte 0 1009.7 -0.8 79
2019-08-18 03:00:00 23.2 28 Norte 39 Norte 0 1009.8 -0.8 77
2019-08-18 02:00:00 23 24 Norte 37 Norte 0 1010.2 -0.1 83
2019-08-18 01:00:00 23.5 25 Norte 33 Nordeste 0 1010.5 0.9 78
2019-08-18 00:00:00 23.5 9 Nordeste 13 Nordeste 0 1010.6 1.9 81
2019-08-17 23:00:00 24.1 10 Norte 18 Nordeste 0 1010.3 1.8 77
2019-08-17 22:00:00 24.9 11 Nordeste 24 Norte 0 1009.6 1.2 73
2019-08-17 21:00:00 25.6 13 Norte 21 Norte 0 1008.7 0.5 67
2019-08-17 20:00:00 25.4 10 Nordeste 22 Nordeste 0 1008.5 0.3 71
2019-08-17 19:00:00 26.3 11 Nordeste 24 Nordeste 0 1008.4 0.2 69
2019-08-17 18:00:00 26.8 10 Este 28 Nordeste 0 1008.2 -0.4 65
2019-08-17 17:00:00 28.3 19 Nordeste 37 Norte 0 1008.2 -1.1 56
2019-08-17 16:00:00 29.3 30 Norte 52 Norte 0 1008.2 -1.4 53
2019-08-17 15:00:00 29.4 37 Norte 48 Norte 0 1008.6 -1.2 52
2019-08-17 14:00:00 29.4 27 Nordeste 39 Nordeste 0 1009.3 -0.2 53
2019-08-17 13:00:00 30.4 27 Nordeste 42 Nordeste 0 1009.6 0.2 48
2019-08-17 12:00:00 30 28 Norte 42 Norte 0 1009.8 0.6 48
2019-08-17 11:00:00 27.7 17 Norte 32 Norte 0 1009.5 0.5 59
2019-08-17 10:00:00 26.8 19 Nordeste 30 Norte 0 1009.4 0.8 62
2019-08-17 09:00:00 26.5 16 Norte 26 Norte 0 1009.2 0.9 59
2019-08-17 08:00:00 24.6 21 Norte 28 Norte 0 1009 0.8 65
2019-08-17 07:00:00 24.9 12 Norte 26 Nordeste 0 1008.6 0 61
2019-08-17 06:00:00 25.3 19 Norte 32 Norte 0 1008.3 -0.4 58
2019-08-17 05:00:00 25.3 23 Norte 33 Norte 0 1008.2 -1.1 61
2019-08-17 04:00:00 25.1 23 Norte 35 Norte 0 1008.6 -1.1 68
2019-08-17 03:00:00 25.8 23 Norte 35 Norte 0 1008.7 -1.1 63
2019-08-17 02:00:00 25.2 14 Norte 35 Norte 0 1009.3 -0.4 68
2019-08-17 01:00:00 25.8 27 Norte 41 Norte 0 1009.7 0.2 62
2019-08-17 00:00:00 26.4 22 Norte 32 Norte 0 1009.8 1.1 57
2019-08-16 23:00:00 25.9 20 Norte 33 Nordeste 0 1009.7 1.2 63
2019-08-16 22:00:00 25 13 Norte 28 Nordeste 0 1009.5 1.3 71
2019-08-16 21:00:00 25.3 21 Nordeste 33 Norte 0 1008.7 0.5 71
2019-08-16 20:00:00 26 5 Norte 21 Nordeste 0 1008.5 0 68
2019-08-16 19:00:00 26.5 14 Nordeste 30 Norte 0 1008.2 -0.7 66
2019-08-16 18:00:00 26.2 22 Norte 41 Nordeste 0 1008.2 -1.1 70
2019-08-16 17:00:00 27.2 19 Nordeste 33 Nordeste 0 1008.5 -0.9 64
2019-08-16 16:00:00 27.7 13 Nordeste 32 Nordeste 0 1008.9 -1.1 60
2019-08-16 15:00:00 28.1 16 Nordeste 42 Norte 0 1009.3 -0.9 57
2019-08-16 14:00:00 30.2 28 Norte 42 Nordeste 0 1009.4 -0.8 48
2019-08-16 13:00:00 28.3 24 Norte 52 Norte 0 1010 0.7 54
2019-08-16 12:00:00 28.5 31 Norte 52 Norte 0 1010.2 0.3 51
2019-08-16 11:00:00 26.9 33 Norte 42 Norte 0 1010.2 1.1 58
2019-08-16 10:00:00 26.2 33 Nordeste 45 Nordeste 0 1009.3 -0.9 60
2019-08-16 09:00:00 25.4 19 Norte 39 Norte 0 1009.9 0.6 64
2019-08-16 08:00:00 26 32 Norte 45 Norte 0 1009.1 -0.1 57
2019-08-16 07:00:00 26.2 17 Norte 39 Norte 0 1010.2 0.9 56
2019-08-16 06:00:00 26.4 26 Norte 45 Norte 0 1009.3 -0.5 54
2019-08-16 05:00:00 26 24 Norte 41 Norte 0 1009.2 -1.4 56
2019-08-16 04:00:00 25.4 25 Norte 39 Norte 0 1009.3 -1.8 59
2019-08-16 03:00:00 24.5 27 Norte 35 Norte 0 1009.8 -1.6 66
2019-08-16 02:00:00 24.5 26 Norte 37 Norte 0 1010.6 -1 67
2019-08-16 01:00:00 24.7 26 Norte 35 Norte 0 1011.1 -0.3 66
2019-08-16 00:00:00 24.8 22 Norte 32 Norte 0 1011.4 0.4 66
2019-08-15 23:00:00 25.3 21 Norte 32 Norte 0 1011.6 0.9 64
2019-08-15 22:00:00 25.7 21 Norte 30 Norte 0 1011.4 0.7 65
2019-08-15 21:00:00 26 17 Norte 30 Nordeste 0 1011 0 65
2019-08-15 20:00:00 26.5 19 Norte 28 Nordeste 0 1010.7 -0.5 69
2019-08-15 19:00:00 25.7 20 Nordeste 30 Nordeste 0 1010.7 -0.8 78
2019-08-15 18:00:00 26.1 24 Nordeste 37 Norte 0 1011 -0.3 74
2019-08-15 17:00:00 26.4 28 Nordeste 41 Nordeste 0 1011.2 -0.6 73
2019-08-15 16:00:00 26.1 32 Nordeste 41 Nordeste 0 1011.5 -0.7 73
2019-08-15 15:00:00 26.6 32 Nordeste 41 Nordeste 0 1011.3 -1.4 72
2019-08-15 14:00:00 25.9 27 Nordeste 37 Nordeste 0 1011.8 -0.8 73
2019-08-15 13:00:00 25.9 30 Nordeste 39 Nordeste 0 1012.2 -0.3 73
2019-08-15 12:00:00 25.6 28 Nordeste 37 Nordeste 0 1012.7 0.7 74
2019-08-15 11:00:00 24.9 22 Nordeste 30 Nordeste 0 1012.6 0.6 75
2019-08-15 10:00:00 24.5 24 Nordeste 33 Norte 0 1012.5 0.7 76
2019-08-15 09:00:00 23.3 24 Norte 32 Norte 0 1012 0.3 79
2019-08-15 08:00:00 22.2 22 Norte 32 Norte 0 1012 0.3 82
2019-08-15 07:00:00 22.4 27 Norte 35 Norte 0 1011.8 0.2 80
2019-08-15 06:00:00 22.9 22 Noroeste 30 Noroeste 0 1011.7 -0.4 75
2019-08-15 05:00:00 23.3 24 Noroeste 35 Noroeste 0 1011.7 -1.2 69
2019-08-15 04:00:00 23.5 27 Noroeste 37 Noroeste 0 1011.6 -1.6 67
2019-08-15 03:00:00 23.6 27 Noroeste 37 Noroeste 0 1012.1 -1.1 65
2019-08-15 02:00:00 23.1 18 Norte 32 Norte 0 1012.9 -0.4 69
2019-08-15 01:00:00 23.5 23 Norte 33 Noroeste 0 1013.2 0.2 69
2019-08-15 00:00:00 24 26 Noroeste 37 Norte 0 1013.2 0.8 68
2019-08-14 23:00:00 24.4 27 Norte 35 Norte 0 1013.3 1.6 65
2019-08-14 22:00:00 24.4 24 Noroeste 33 Norte 0 1013 1.4 69
2019-08-14 21:00:00 25 23 Norte 35 Noroeste 0 1012.4 0.2 68
2019-08-14 20:00:00 26.6 26 Norte 39 Norte 0 1011.7 -1.1 64
2019-08-14 19:00:00 26.8 26 Nordeste 32 Norte 0 1011.6 -1.3 67
2019-08-14 18:00:00 26.1 24 Nordeste 30 Nordeste 0 1012.2 -0.5 72
2019-08-14 17:00:00 26.8 23 Nordeste 30 Nordeste 0 1012.8 -0.1 68
2019-08-14 16:00:00 27.5 24 Nordeste 33 Nordeste 0 1012.9 -0.3 65
2019-08-14 15:00:00 28 26 Nordeste 33 Nordeste 0 1012.7 -1.1 59
2019-08-14 14:00:00 28 30 Nordeste 39 Nordeste 0 1012.9 -1 57
2019-08-14 13:00:00 28.2 33 Nordeste 45 Nordeste 0 1013.2 -0.3 49
2019-08-14 12:00:00 27.1 30 Nordeste 41 Nordeste 0 1013.8 0.7 55
2019-08-14 11:00:00 26.1 28 Nordeste 41 Norte 0 1013.9 1.2 59
2019-08-14 10:00:00 24.9 30 Norte 41 Norte 0 1013.5 1.2 63
2019-08-14 09:00:00 23.6 28 Norte 33 Norte 0 1013.1 1 64
2019-08-14 08:00:00 21.9 24 Noroeste 33 Noroeste 0 1012.7 0.5 68
2019-08-14 07:00:00 21.7 25 Noroeste 33 Noroeste 0 1012.3 -0.3 68
2019-08-14 06:00:00 21.9 27 Noroeste 35 Noroeste 0 1012.1 -0.9 68
2019-08-14 05:00:00 21.6 26 Noroeste 33 Noroeste 0 1012.2 -1.3 69
2019-08-14 04:00:00 21.6 22 Norte 30 Noroeste 0 1012.6 -1.4 70
2019-08-14 03:00:00 21.5 19 Norte 32 Norte 0 1013 -1.1 68
2019-08-14 02:00:00 21.5 24 Norte 33 Norte 0 1013.5 -0.6 74
2019-08-14 01:00:00 21.7 24 Norte 37 Norte 0 1014 0.3 75
2019-08-14 00:00:00 21.9 26 Norte 39 Norte 0 1014.1 0.9 74
2019-08-13 23:00:00 22.1 27 Norte 37 Norte 0 1014.1 1.5 75
2019-08-13 22:00:00 22.4 31 Norte 42 Norte 0 1013.7 1.5 73
2019-08-13 21:00:00 23 31 Norte 41 Norte 0 1013.2 0.9 70
2019-08-13 20:00:00 24.8 32 Norte 54 Norte 0 1012.6 0.3 62
2019-08-13 19:00:00 26.1 37 Norte 48 Norte 0 1012.2 -0.8 56
2019-08-13 18:00:00 27.5 35 Norte 50 Norte 0 1012.3 -1.3 49
2019-08-13 17:00:00 27.8 35 Norte 46 Norte 0 1012.3 -1.8 51
2019-08-13 16:00:00 25.6 32 Nordeste 45 Nordeste 0 1013 -1.1 68
2019-08-13 15:00:00 25.8 33 Nordeste 42 Nordeste 0 1013.6 -0.3 68
2019-08-13 14:00:00 25.7 31 Nordeste -- -- -- 1014.1 0.1 68
2019-08-13 13:00:00 26.2 33 Nordeste 42 Nordeste 0 1014.1 0.4 61
2019-08-13 12:00:00 25.7 32 Nordeste 42 Nordeste 0 1013.9 0.3 63
2019-08-13 11:00:00 25 33 Nordeste 45 Norte 0 1014 0.9 64
2019-08-13 10:00:00 24.2 35 Norte 46 Norte 0 1013.7 0.7 64
2019-08-13 09:00:00 22.6 32 Norte 41 Norte 0 1013.6 1 72
2019-08-13 08:00:00 20.9 30 Norte 39 Norte 0 1013.1 0.2 79
2019-08-13 07:00:00 20.8 30 Norte 41 Norte 0 1013 0 79
2019-08-13 06:00:00 20.8 31 Norte 39 Norte 0 1012.6 -0.9 77
2019-08-13 05:00:00 20.8 24 Norte 39 Norte 0 1012.9 -0.8 78
2019-08-13 04:00:00 21.3 28 Norte 41 Norte 0 1013 -0.9 79
2019-08-13 03:00:00 21.4 28 Norte 42 Norte 0 1013.5 -0.7 78
2019-08-13 02:00:00 21.6 32 Norte 45 Norte 0 1013.7 -0.4 77
2019-08-13 01:00:00 21.7 31 Norte 39 Norte 0 1013.9 0.1 76
2019-08-13 00:00:00 21.9 26 Norte 42 Norte 0 1014.2 1 74
2019-08-12 23:00:00 22.2 32 Norte 45 Norte 0 1014.1 1.6 74
2019-08-12 22:00:00 22.6 36 Norte 48 Norte 0 1013.8 1.9 74
2019-08-12 21:00:00 23.2 38 Norte 46 Norte 0 1013.2 1.5 70
2019-08-12 20:00:00 24.6 36 Norte 52 Norte 0 1012.5 0.5 64
2019-08-12 19:00:00 26.1 39 Norte 54 Norte 0 1011.9 -0.3 57
2019-08-12 18:00:00 27.5 38 Norte 52 Norte 0 1011.7 -0.9 53
2019-08-12 17:00:00 25.6 31 Nordeste 45 Nordeste 0 1012 -1 71
2019-08-12 16:00:00 26 34 Nordeste 45 Nordeste 0 1012.2 -1.4 69
2019-08-12 15:00:00 26.1 31 Nordeste 42 Nordeste 0 1012.6 -1 68
2019-08-12 14:00:00 26 35 Nordeste 42 Nordeste 0 1013 -0.5 68
2019-08-12 13:00:00 26.5 35 Nordeste 46 Nordeste 0 1013.6 0.3 61
2019-08-12 12:00:00 26.1 35 Nordeste 50 Norte 0 1013.6 0.8 63
2019-08-12 11:00:00 25.3 37 Nordeste 46 Nordeste 0 1013.5 1.2 67
2019-08-12 10:00:00 24.5 31 Nordeste 45 Norte 0 1013.3 1.3 70
2019-08-12 09:00:00 23.3 35 Norte 45 Norte 0 1012.8 1 71
2019-08-12 08:00:00 21.9 30 Norte 39 Norte 0 1012.3 0.6 75
2019-08-12 07:00:00 21.8 32 Norte 41 Norte 0 1012 -0.1 74
2019-08-12 06:00:00 21.8 30 Norte 41 Norte 0 1011.8 -0.7 75
2019-08-12 05:00:00 21.9 31 Norte 41 Norte 0 1011.7 -1.7 74
2019-08-12 04:00:00 22.1 32 Norte 45 Norte 0 1012.1 -1.8 73
2019-08-12 03:00:00 22.2 33 Norte 45 Norte 0 1012.5 -1.7 73
2019-08-12 02:00:00 22.4 30 Norte 42 Norte 0 1013.4 -1 71
2019-08-12 01:00:00 22.6 29 Norte 41 Norte 0 1013.9 -0.2 69
2019-08-12 00:00:00 22.9 30 Norte 41 Norte 0 1014.2 0.5 66
2019-08-11 23:00:00 22.9 29 Norte 39 Norte 0 1014.4 1.5 70
2019-08-11 22:00:00 23.3 29 Norte 41 Norte 0 1014.1 1.1 71
2019-08-11 21:00:00 24 31 Norte 46 Norte 0 1013.7 0.5 68
2019-08-11 20:00:00 24.5 39 Norte 46 Norte 0 1012.9 -0.3 69
2019-08-11 19:00:00 24.6 32 Nordeste 42 Nordeste 0 1013 -0.4 75
2019-08-11 18:00:00 25.4 34 Nordeste 42 Nordeste 0 1013.2 -0.6 70
2019-08-11 17:00:00 25.7 36 Nordeste 45 Nordeste 0 1013.2 -1 69
2019-08-11 16:00:00 26 35 Nordeste 45 Nordeste 0 1013.4 -1.3 68
2019-08-11 15:00:00 26.1 33 Nordeste 42 Nordeste 0 1013.8 -1.4 67
2019-08-11 14:00:00 26.2 33 Nordeste 42 Nordeste 0 1014.2 -1.3 67
2019-08-11 13:00:00 26 32 Nordeste 45 Nordeste 0 1014.7 -0.2 68
2019-08-11 12:00:00 25.4 34 Nordeste 42 Nordeste 0 1015.2 1.1 70
2019-08-11 11:00:00 25.1 27 Nordeste 45 Norte 0 1015.5 1.4 72
2019-08-11 10:00:00 25.1 34 Norte 42 Norte 0 1014.9 1.1 69
2019-08-11 09:00:00 23.6 32 Norte 41 Norte 0 1014.1 0.4 74
2019-08-11 08:00:00 22.4 22 Norte 33 Norte 0 1014.1 0.4 82
2019-08-11 07:00:00 22.4 27 Norte 39 Norte 0 1013.8 -0.2 82
2019-08-11 06:00:00 22.6 27 Norte 37 Norte 0 1013.7 -0.7 82
2019-08-11 05:00:00 23 23 Norte 39 Norte 0 1013.7 -1.2 79
2019-08-11 04:00:00 23.5 29 Norte 39 Norte 0 1014 -1.4 75
2019-08-11 03:00:00 23.7 28 Norte 41 Norte 0 1014.4 -1.6 73
2019-08-11 02:00:00 23.5 31 Norte 41 Norte 0 1014.9 -0.9 77
2019-08-11 01:00:00 23.5 31 Norte 45 Norte 0 1015.4 0.5 80
2019-08-11 00:00:00 23.6 31 Norte 41 Norte 0 1016 1.6 86
2019-08-10 23:00:00 24.2 28 Norte 42 Norte 0 1015.8 1.7 84
2019-08-10 22:00:00 24.5 33 Norte 45 Norte 0 1014.9 1.6 81
2019-08-10 21:00:00 25.2 33 Norte 45 Norte 0 1014.4 1 76
2019-08-10 20:00:00 24.8 23 Nordeste 37 Nordeste 0 1014.1 0.4 80
2019-08-10 19:00:00 25.4 28 Nordeste 37 Nordeste 0 1013.3 -1.1 78
2019-08-10 18:00:00 25.9 30 Nordeste 41 Nordeste 0 1013.4 -1.9 74
2019-08-10 17:00:00 26.6 32 Nordeste 46 Nordeste 0 1013.7 -2.2 72
2019-08-10 16:00:00 26.5 36 Nordeste 46 Nordeste 0 1014.4 -1.9 73
2019-08-10 15:00:00 26.4 28 Nordeste 37 Nordeste 0 1015.3 -0.9 72
2019-08-10 14:00:00 26.3 26 Nordeste 37 Nordeste 0 1015.9 -0.1 73
2019-08-10 13:00:00 26.2 28 Nordeste 41 Nordeste 0 1016.3 0.7 73
2019-08-10 12:00:00 25.8 31 Nordeste 41 Nordeste 0 1016.2 1.1 74
2019-08-10 11:00:00 25.3 26 Nordeste 45 Norte 0 1016 1.3 76
2019-08-10 10:00:00 25 27 Norte 35 Norte 0 1015.6 1.7 75
2019-08-10 09:00:00 23.7 24 Norte 32 Norte 0 1015.1 1.5 81
2019-08-10 08:00:00 22.6 21 Norte 26 Norte 0 1014.7 1 77
2019-08-10 07:00:00 22.2 18 Norte 32 Norte 0 1013.9 -0.1 73
2019-08-10 06:00:00 22.7 23 Norte 30 Norte 0 1013.6 -0.7 68
2019-08-10 05:00:00 22.2 15 Norte 24 Norte 0 1013.7 -1.4 64
2019-08-10 04:00:00 21.6 11 Norte 15 Norte 0 1014 -1.9 65
2019-08-10 03:00:00 21.7 9 Norte 22 Norte 0 1014.3 -2.1 79
2019-08-10 02:00:00 22.2 17 Norte 21 Nordeste 0 1015.1 -1.1 86
2019-08-10 01:00:00 22.2 13 Norte 22 Norte 0 1015.9 -- 84
2019-08-10 00:00:00 22.5 21 Norte 26 Norte 0 1016.4 1.7 85
2019-08-09 23:00:00 23 18 Norte 26 Nordeste 0 1016.2 1.9 81
2019-08-09 22:00:00 22.8 21 Nordeste 30 Nordeste 0 -- -- 88
2019-08-09 21:00:00 23.1 24 Nordeste 32 Nordeste 0 1014.7 0.5 87
2019-08-09 20:00:00 23.7 18 Nordeste 26 Nordeste 0 1014.3 -0.1 82
2019-08-09 19:00:00 24.3 18 Nordeste 26 Norte 0 1014.2 -0.6 78
2019-08-09 18:00:00 24.8 19 Nordeste 28 Nordeste 0 1014.2 -1 75
2019-08-09 17:00:00 25.1 22 Nordeste 30 Nordeste 0 1014.4 -1 73
2019-08-09 16:00:00 25.1 15 Nordeste 24 Nordeste 0 1014.8 -0.9 73
2019-08-09 15:00:00 24.9 14 Nordeste 22 Nordeste 0 1015.2 -0.5 74
2019-08-09 14:00:00 24.9 15 Nordeste 30 Nordeste 0 1015.4 0.3 73
2019-08-09 13:00:00 25 22 Nordeste 30 Nordeste 0 1015.7 0.9 72
2019-08-09 12:00:00 24.8 25 Nordeste 32 Nordeste 0 1015.7 1.2 72
2019-08-09 11:00:00 23.9 27 Nordeste 33 Norte 0 1015.1 0.7 76
2019-08-09 10:00:00 23 24 Nordeste 32 Nordeste 0 1014.8 0.7 79
2019-08-09 09:00:00 22.3 21 Nordeste 32 Nordeste 0 1014.5 0.3 82
2019-08-09 08:00:00 21.8 27 Nordeste 33 Nordeste 0 1014.4 0.3 85
2019-08-09 07:00:00 21.7 25 Nordeste 32 Nordeste 0 1014.1 -0.1 87
2019-08-09 06:00:00 21.9 26 Nordeste 32 Nordeste 0 1014.2 -0.6 86
2019-08-09 05:00:00 21.9 20 Nordeste 28 Nordeste 0 1014.1 -1.1 86
2019-08-09 04:00:00 21.7 22 Norte 28 Norte 0 1014.2 -1.3 86
2019-08-09 03:00:00 22 21 Nordeste 26 Nordeste 0 1014.8 -0.8 85
2019-08-09 02:00:00 22.2 21 Nordeste 26 Nordeste 0 1015.2 -0.3 84
2019-08-09 01:00:00 22.3 18 Nordeste 28 Nordeste 0 1015.5 0.6 85
2019-08-09 00:00:00 22.4 16 Nordeste 22 Nordeste 0 1015.6 1.7 85
2019-08-08 23:00:00 22.4 17 Nordeste 22 Nordeste 0 1015.5 2.3 85
2019-08-08 22:00:00 22.6 15 Nordeste 21 Nordeste 0 1014.9 1.9 84
2019-08-08 21:00:00 22.8 15 Nordeste 21 Nordeste 0 1013.9 1.2 83
2019-08-08 20:00:00 23.5 15 Nordeste 21 Nordeste 0 1013.2 0.7 80
2019-08-08 19:00:00 24.1 15 Nordeste 22 Nordeste 0 1013 0.4 78
2019-08-08 18:00:00 24.5 20 Nordeste 26 Nordeste 0 1012.7 -0.7 76
2019-08-08 17:00:00 24.8 21 Nordeste 28 Nordeste 0 1012.5 -1 74
2019-08-08 16:00:00 24.9 17 Nordeste 24 Nordeste 0 1012.6 -1.3 72
2019-08-08 15:00:00 24.3 14 Nordeste 22 Nordeste 0 1013.4 -0.4 74
2019-08-08 14:00:00 24.5 15 Nordeste 22 Nordeste 0 1013.5 0.2 73
2019-08-08 13:00:00 24.5 15 Este 24 Nordeste 0 1013.9 1.8 73
2019-08-08 12:00:00 24.4 18 Nordeste 24 Nordeste 0 1013.8 1.2 74
2019-08-08 11:00:00 23.9 19 Este 32 Norte 0 1013.3 1.4 75
2019-08-08 10:00:00 23.5 22 Norte -- -- -- 1012.1 0.8 77
2019-08-08 09:00:00 22.7 21 Nordeste 26 Nordeste 0 1012.6 0.4 80
2019-08-08 08:00:00 21.6 16 Norte 28 Norte 0 1011.9 0.1 84
2019-08-08 07:00:00 21.6 21 Norte 26 Norte 0 1011.3 -0.7 82
2019-08-08 06:00:00 22.1 12 Norte 18 Norte 0 1012.2 0 82
2019-08-08 05:00:00 21.9 16 Norte 26 Norte 0 1011.8 -1.1 83
2019-08-08 04:00:00 22.1 17 Nordeste 33 Norte 0 1012 -0.9 85
2019-08-08 03:00:00 22.1 23 Norte 30 Norte 0 1012.2 -1.2 86
2019-08-08 02:00:00 21.9 18 Nordeste -- -- -- 1012.9 -0.1 88
2019-08-08 01:00:00 22.1 19 Nordeste 24 Norte 0 1012.9 -0.1 87
2019-08-08 00:00:00 22.4 17 Nordeste 28 Norte 0 1013.4 0.7 85
2019-08-07 23:00:00 22.4 23 Norte 30 Norte 0 1013 0.9 86
2019-08-07 22:00:00 22.5 23 Nordeste 30 Norte 0 1013 1 85
2019-08-07 21:00:00 22.7 19 Nordeste 28 Nordeste 0 1012.7 0.7 84
2019-08-07 20:00:00 23.5 22 Nordeste 28 Nordeste 0 1012.1 0 80
2019-08-07 19:00:00 24.1 22 Nordeste 30 Nordeste 0 1012 -0.7 76
2019-08-07 18:00:00 24.5 23 Nordeste 32 Nordeste 0 1012 -1.1 73
2019-08-07 17:00:00 25 24 Nordeste 30 Nordeste 0 1012.1 -1.3 69
2019-08-07 16:00:00 25.2 22 Nordeste 32 Nordeste 0 1012.7 -0.6 68
2019-08-07 15:00:00 25.2 26 Nordeste 32 Nordeste 0 1013.1 0 70
2019-08-07 14:00:00 25.4 26 Nordeste 35 Nordeste 0 1013.4 0.9 69
2019-08-07 13:00:00 25.3 27 Nordeste 35 Nordeste 0 1013.3 1 70
2019-08-07 12:00:00 24.9 26 Nordeste 42 Nordeste 0 1013.1 1 69
2019-08-07 11:00:00 24.3 27 Nordeste 35 Nordeste 0 1012.5 0.5 72
2019-08-07 10:00:00 23.9 24 Norte 32 Norte 0 1012.3 0.7 69
2019-08-07 09:00:00 22.4 16 Norte 22 Norte 0 1012.1 1 77
2019-08-07 08:00:00 21.2 16 Norte 24 Noroeste 0 1012 0.9 80
2019-08-07 07:00:00 20.8 16 Norte 24 Norte 0 1011.6 0.5 81
2019-08-07 06:00:00 21 19 Norte 28 Norte 0 1011.1 -0.2 81
2019-08-07 05:00:00 21.1 17 Norte 26 Norte 0 1011.1 -0.7 80
2019-08-07 04:00:00 21.2 16 Norte 24 Norte 0 1011.1 -1.1 78
2019-08-07 03:00:00 21.4 16 Norte 26 Norte 0 1011.3 -1.5 79
2019-08-07 02:00:00 21.5 20 Norte -- -- -- 1011.8 -1 80
2019-08-07 01:00:00 21.8 22 Norte 41 Norte 0 1012.2 -0.2 80
2019-08-07 00:00:00 22.1 28 Nordeste 39 Nordeste 0 1012.8 1.2 79
2019-08-06 23:00:00 22.3 26 Norte 33 Norte 0 1012.8 1.8 81
2019-08-06 22:00:00 22.9 24 Norte 35 Norte 0 1012.4 1.7 74
2019-08-06 21:00:00 23.8 27 Norte 39 Norte 0 1011.6 0.7 69
2019-08-06 20:00:00 25.1 28 Norte 39 Norte 0 1011 -0.1 64
2019-08-06 19:00:00 26.5 28 Norte 41 Norte 0 1010.7 -0.9 59
2019-08-06 18:00:00 27.6 31 Noroeste 46 Noroeste 0 1010.9 -1.2 54
2019-08-06 17:00:00 28.5 30 Norte 41 Norte 0 1011.1 -1.2 52
2019-08-06 16:00:00 26.6 30 Nordeste 42 Nordeste 0 1011.6 -1.1 63
2019-08-06 15:00:00 25.8 28 Nordeste 46 Nordeste 0 1012.1 -0.9 69
2019-08-06 14:00:00 26.7 30 Nordeste 45 Nordeste 0 1012.3 -0.6 62
2019-08-06 13:00:00 26.4 32 Nordeste 42 Nordeste 0 1012.7 -0.3 63
2019-08-06 12:00:00 26.9 29 Norte 45 Norte 0 1013 0.2 57
2019-08-06 11:00:00 26 33 Norte 46 Norte 0 1012.9 0.2 60
2019-08-06 10:00:00 24.5 32 Norte 45 Norte 0 1013 0.5 65
2019-08-06 09:00:00 22.9 33 Norte 45 Norte 0 1012.8 0.4 72
2019-08-06 08:00:00 21.9 24 Norte 37 Norte 0 1012.7 0.2 76
2019-08-06 07:00:00 22.1 25 Norte 35 Norte 0 1012.5 -0.1 75
2019-08-06 06:00:00 22.1 24 Norte 35 Norte 0 1012.4 -0.5 77
2019-08-06 05:00:00 22.2 25 Norte 39 Norte 0 1012.5 -0.9 77
2019-08-06 04:00:00 22.2 35 Norte 46 Norte 0 1012.6 -1.1 79
2019-08-06 03:00:00 22.3 35 Norte 42 Norte 0 1012.9 -0.7 83
2019-08-06 02:00:00 21.7 23 Norte -- -- -- 1013.4 -0.2 80
2019-08-06 01:00:00 21.9 28 Norte 37 Norte 0 1013.7 0.4 80
2019-08-06 00:00:00 22.2 27 Norte 35 Norte 0 1013.6 1 78
2019-08-05 23:00:00 22.4 29 Norte 39 Norte 0 1013.6 1.5 78
2019-08-05 22:00:00 22.8 26 Norte 41 Norte 0 1013.3 1.4 75
2019-08-05 21:00:00 23.6 29 Norte 42 Norte 0 1012.6 0.7 71
2019-08-05 20:00:00 25.4 34 Norte 45 Norte 0 1012.1 -0.2 64
2019-08-05 19:00:00 24.5 26 Nordeste 39 Nordeste 0 1011.9 -0.5 76
2019-08-05 18:00:00 24.8 31 Nordeste 39 Nordeste 0 1011.9 -1.1 74
2019-08-05 17:00:00 25.3 29 Nordeste 39 Nordeste 0 1012.3 -1.5 72
2019-08-05 16:00:00 25.7 29 Nordeste 39 Nordeste 0 1012.4 -1.4 69
2019-08-05 15:00:00 25.8 29 Nordeste 37 Nordeste 0 1013 -0.8 67
2019-08-05 14:00:00 25.3 28 Nordeste 39 Nordeste 0 1013.8 -0.1 69
2019-08-05 13:00:00 25.1 32 Nordeste 39 Nordeste 0 1013.8 -0.1 71
2019-08-05 12:00:00 25.2 24 Nordeste 35 Nordeste 0 1013.8 -0.1 69
2019-08-05 11:00:00 24.6 27 Nordeste 39 Norte 0 1013.9 0.4 70
2019-08-05 10:00:00 24.1 31 Norte 39 Norte 0 1013.9 0.6 66
2019-08-05 09:00:00 22.7 31 Norte 37 Norte 0 1013.9 0.7 73
2019-08-05 08:00:00 22.2 31 Norte 41 Nordeste 0 1013.5 0.3 74
2019-08-05 07:00:00 22.3 22 Norte 42 Norte 0 1013.3 0 74
2019-08-05 06:00:00 22.3 24 Norte 37 Norte 0 1013.2 -0.3 76
2019-08-05 05:00:00 22.3 27 Norte 35 Norte 0 1013.2 -0.8 76
2019-08-05 04:00:00 22.4 29 Norte 39 Norte 0 1013.3 -1.2 75
2019-08-05 03:00:00 22.4 25 Norte 59 Norte 0 1013.5 -1.3 79
2019-08-05 02:00:00 22.3 28 Norte -- -- -- 1014 -0.9 78
2019-08-05 01:00:00 22.7 34 Norte 42 Norte 0 1014.5 0.2 73
2019-08-05 00:00:00 23 24 Norte 32 Norte 0 1014.8 1 78
2019-08-04 23:00:00 22.9 24 Norte 35 Norte 0 1014.9 1.6 77
2019-08-04 22:00:00 23.4 25 Norte 37 Norte 0 1014.3 1 74
2019-08-04 21:00:00 23.2 26 Norte 58 Nordeste 0 1013.8 0.3 76
2019-08-04 20:00:00 23.6 28 Nordeste 41 Nordeste 0 1013.3 -0.1 73
2019-08-04 19:00:00 24.6 28 Nordeste 39 Nordeste 0 1013.3 -0.2 68
2019-08-04 18:00:00 24.8 26 Nordeste 39 Nordeste 0 1013.5 -0.3 66
2019-08-04 17:00:00 25.3 32 Nordeste 45 Nordeste 0 1013.4 -0.7 63
2019-08-04 16:00:00 25.5 29 Nordeste 39 Nordeste 0 1013.5 -1.1 64
2019-08-04 15:00:00 25.6 29 Nordeste 39 Nordeste 0 1013.8 -0.9 64
2019-08-04 14:00:00 25.4 31 Nordeste 42 Nordeste 0 1014.1 -0.6 62
2019-08-04 13:00:00 25.2 31 Nordeste 42 Nordeste 0 1014.6 0 64
2019-08-04 12:00:00 24.8 29 Nordeste 37 Nordeste 0 1014.7 0.4 69
2019-08-04 11:00:00 24.8 26 Nordeste 37 Norte 0 1014.7 0.7 64
2019-08-04 10:00:00 23.6 28 Norte 42 Norte 0 1014.6 0.9 65
2019-08-04 09:00:00 22.7 24 Norte 39 Norte 0 1014.3 0.6 66
2019-08-04 08:00:00 22 24 Norte 33 Norte 0 1014 0.4 70
2019-08-04 07:00:00 21.7 20 Norte 37 Norte 0 1013.7 0.1 71
2019-08-04 06:00:00 21.5 18 Norte 28 Norte 0 1013.7 -0.1 72
2019-08-04 05:00:00 21.1 19 Norte 28 Norte 0 1013.6 -0.7 75
2019-08-04 04:00:00 21.1 19 Norte 30 Norte 0 1013.6 -1.2 75
2019-08-04 03:00:00 21.4 19 Norte 28 Norte 0 1013.8 -1.3 76
2019-08-04 02:00:00 21.1 18 Norte -- -- -- 1014.3 -0.4 76
2019-08-04 01:00:00 21.5 19 Norte 28 Norte 0 1014.8 0.5 74
2019-08-04 00:00:00 21.5 21 Norte 32 Norte 0 1015.1 1.3 74
2019-08-03 23:00:00 21.8 28 Norte 35 Norte 0 1014.7 1.2 73
2019-08-03 22:00:00 22.3 27 Norte 35 Norte 0 1014.3 1 71
2019-08-03 21:00:00 23 31 Norte 39 Norte 0 1013.8 0.5 68
2019-08-03 20:00:00 23.2 27 Nordeste 41 Nordeste 0 1013.5 -0.2 75
2019-08-03 19:00:00 24.7 30 Nordeste 41 Nordeste 0 1013.3 -0.7 66
2019-08-03 18:00:00 24.5 32 Nordeste 42 Nordeste 0 1013.3 -1.1 68
2019-08-03 17:00:00 24.7 32 Nordeste 45 Nordeste 0 1013.7 -1 67
2019-08-03 16:00:00 25.3 32 Nordeste 42 Nordeste 0 1014 -1 66
2019-08-03 15:00:00 25.3 32 Nordeste 41 Nordeste 0 1014.4 -0.8 65
2019-08-03 14:00:00 25.1 30 Nordeste 41 Nordeste 0 1014.7 -0.2 66
2019-08-03 13:00:00 25 28 Nordeste 37 Nordeste 0 1015 0.3 66
2019-08-03 12:00:00 24.5 28 Nordeste 35 Nordeste 0 1015.2 0.6 64
2019-08-03 11:00:00 23.8 24 Nordeste 35 Nordeste 0 1014.9 0.8 66
2019-08-03 10:00:00 23.2 27 Norte 39 Norte 0 1014.7 1 65
2019-08-03 09:00:00 22 28 Norte 39 Norte 0 1014.6 1 70
2019-08-03 08:00:00 21.4 27 Norte 42 Norte 0 1014.1 0.1 72
2019-08-03 07:00:00 21.3 27 Norte 39 Norte 0 1013.7 -0.6 72
2019-08-03 06:00:00 21.5 28 Norte 35 Norte 0 1013.6 -0.7 70
2019-08-03 05:00:00 21.7 19 Norte 28 Norte 0 1014 -0.8 72
2019-08-03 04:00:00 21.7 21 Norte 30 Nordeste 0 1014.3 -0.9 71
2019-08-03 03:00:00 21.8 24 Norte 33 Norte 0 1014.3 -1.1 73
2019-08-03 02:00:00 21.8 22 Nordeste -- -- -- 1014.8 -0.4 73
2019-08-03 01:00:00 21.7 24 Nordeste 33 Nordeste 0 1015.2 0.6 76
2019-08-03 00:00:00 21.9 16 Norte 33 Norte 0 1015.4 1.4 76
2019-08-02 23:00:00 21.9 24 Norte 37 Norte 0 1015.2 1.5 74
2019-08-02 22:00:00 22.4 27 Norte 37 Norte 0 1014.6 1.3 71
2019-08-02 21:00:00 23.2 27 Norte 41 Norte 0 1014 0.6 67
2019-08-02 20:00:00 25 30 Norte 39 Norte 0 1013.7 0.1 59
2019-08-02 19:00:00 26.5 28 Norte 46 Norte 0 1013.3 -0.6 55
2019-08-02 18:00:00 27.4 31 Norte 45 Norte 0 1013.4 -1 51
2019-08-02 17:00:00 25.5 30 Nordeste 39 Nordeste 0 1013.6 -1.1 65
2019-08-02 16:00:00 25.5 32 Nordeste 41 Nordeste 0 1013.9 -1.5 66
2019-08-02 15:00:00 25.8 27 Nordeste 41 Nordeste 0 1014.4 -1 63
2019-08-02 14:00:00 25.3 30 Nordeste 37 Nordeste 0 1014.7 -0.6 62
2019-08-02 13:00:00 25 26 Nordeste 37 Nordeste 0 1015.4 0.4 64
2019-08-02 12:00:00 24.8 26 Nordeste 33 Nordeste 0 1015.4 0.5 62
2019-08-02 11:00:00 24.1 25 Nordeste 35 Nordeste 0 1015.3 1.2 61
2019-08-02 10:00:00 22.9 26 Nordeste 35 Norte 0 1015 1.2 65
2019-08-02 09:00:00 22 25 Norte 33 Norte 0 1014.9 1.1 65
2019-08-02 08:00:00 21.6 24 Norte 32 Nordeste 0 1014.1 0.3 70
2019-08-02 07:00:00 21.7 23 Norte 32 Nordeste 0 1013.8 -0.1 69
2019-08-02 06:00:00 21.6 21 Norte 33 Norte 0 1013.8 -0.2 69
2019-08-02 05:00:00 21.7 22 Norte 33 Norte 0 1013.8 -0.6 68
2019-08-02 04:00:00 21.8 24 Norte 42 Nordeste 0 1013.9 -0.7 70
2019-08-02 03:00:00 21.9 27 Nordeste 37 Nordeste 0 1014 -0.8 75
2019-08-02 02:00:00 21.9 29 Nordeste 41 Nordeste 0 1014.4 -0.4 76
2019-08-02 01:00:00 22.1 28 Norte 35 Norte 0 1014.6 0.3 78
2019-08-02 00:00:00 22 23 Norte 33 Norte 0 1014.8 1.1 75
2019-08-01 23:00:00 22 28 Norte 39 Norte 0 1014.8 1.6 72
2019-08-01 22:00:00 22.3 24 Norte 41 Norte 0 1014.3 1.5 71
2019-08-01 21:00:00 23.1 34 Norte 45 Norte 0 1013.7 1 67
2019-08-01 20:00:00 24.9 32 Norte 39 Norte 0 1013.2 0.1 60
2019-08-01 19:00:00 26.2 27 Norte 41 Norte 0 1012.8 -0.1 54
2019-08-01 18:00:00 26.9 28 Norte 42 Norte 0 1012.7 -0.5 53
2019-08-01 17:00:00 25 26 Nordeste 46 Nordeste 0 1013.1 -0.7 67
2019-08-01 16:00:00 25.3 28 Nordeste 41 Nordeste 0 1012.9 -1.4 65
2019-08-01 15:00:00 25.3 30 Nordeste 39 Nordeste 0 1013.2 -0.8 63
2019-08-01 14:00:00 25.3 26 Nordeste 33 Nordeste 0 1013.8 -0.4 63
2019-08-01 13:00:00 25.5 25 Nordeste 35 Nordeste 0 1014.3 0.6 59
2019-08-01 12:00:00 24.6 23 Nordeste 32 Nordeste 0 1014 0.7 61
2019-08-01 11:00:00 23.5 22 Nordeste 30 Nordeste 0 1014.2 1.6 65
2019-08-01 10:00:00 23.5 24 Nordeste 32 Norte 0 1013.7 1.4 65
2019-08-01 09:00:00 22.2 22 Norte 35 Norte 0 1013.3 1.4 67
2019-08-01 08:00:00 20.8 21 Norte 33 Norte 0 1012.6 0.5 72
2019-08-01 07:00:00 20.9 23 Norte 33 Norte 0 1012.3 0 75
2019-08-01 06:00:00 20.8 25 Norte 39 Norte 0 1011.9 -0.6 70
2019-08-01 05:00:00 21.2 21 Norte 32 Norte 0 1012.1 -0.9 70
2019-08-01 04:00:00 20.9 24 Norte 42 Norte 0 1012.3 -0.8 71
2019-08-01 03:00:00 21.3 26 Norte 41 Norte 0 1012.5 -1 67
2019-08-01 02:00:00 21.2 22 Norte 39 Norte 0 1013 -0.1 68
2019-08-01 01:00:00 21.2 28 Norte 41 Norte 0 1013.1 0.6 68
2019-08-01 00:00:00 21.5 28 Norte 39 Norte 0 1013.5 1.4 67
2019-07-31 23:00:00 21.8 30 Norte 41 Norte 0 1013.1 1.4 65
2019-07-31 22:00:00 22 32 Norte 45 Norte 0 1012.5 1.3 65
2019-07-31 21:00:00 22.5 27 Norte 46 Norte 0 1012.1 1 64
2019-07-31 20:00:00 23.8 35 Norte 46 Norte 0 1011.7 0.5 60
2019-07-31 19:00:00 25.3 36 Norte 48 Norte 0 1011.2 -0.3 52
2019-07-31 18:00:00 26.2 36 Norte 48 Norte 0 1011.1 -0.9 51
2019-07-31 17:00:00 26.9 35 Norte 52 Norte 0 1011.2 -1.1 47
2019-07-31 16:00:00 27.3 39 Norte 52 Norte 0 1011.5 -1 46
2019-07-31 15:00:00 27.5 35 Norte 48 Norte 0 1012 -0.6 46
2019-07-31 14:00:00 26.9 33 Norte 52 Norte 0 1012.3 -0.1 49
2019-07-31 13:00:00 26.5 37 Norte 50 Norte 0 1012.5 0.3 49
2019-07-31 12:00:00 25.9 35 Norte 48 Norte 0 1012.6 0.7 51
2019-07-31 11:00:00 25 35 Norte 50 Norte 0 1012.4 0.9 54
2019-07-31 10:00:00 23.5 37 Norte 54 Norte 0 1012.2 1 58
2019-07-31 09:00:00 22.1 31 Norte 42 Norte 0 1011.9 0.8 67
2019-07-31 08:00:00 20.7 26 Norte 45 Norte 0 1011.5 0.4 71
2019-07-31 07:00:00 20.7 27 Norte 41 Norte 0 1011.2 0 72
2019-07-31 06:00:00 20.6 26 Norte 42 Norte 0 1011.1 -0.6 71
2019-07-31 05:00:00 20.8 33 Norte 42 Norte 0 1011.1 -1.3 73
2019-07-31 04:00:00 20.8 29 Norte 42 Norte 0 1011.2 -1.7 72
2019-07-31 03:00:00 20.9 28 Norte 46 Norte 0 1011.7 -1.4 72
2019-07-31 02:00:00 21 28 Norte 46 Norte 0 1012.4 -0.7 70
2019-07-31 01:00:00 21.3 30 Norte 46 Norte 0 1012.9 0 70
2019-07-31 00:00:00 21.5 35 Norte 54 Norte 0 1013.1 0.5 69
2019-07-30 23:00:00 21.6 34 Norte 50 Norte 0 1013.1 0.9 69
2019-07-30 22:00:00 22 32 Norte 48 Noroeste 0 1012.9 1.1 67
2019-07-30 21:00:00 22.7 32 Norte 52 Norte 0 1012.6 0.8 66
2019-07-30 20:00:00 23.6 40 Norte 59 Norte 0 1012.2 0.2 60
2019-07-30 19:00:00 25.2 44 Norte 61 Norte 0 1011.8 -0.6 56
2019-07-30 18:00:00 26.1 40 Norte 54 Norte 0 1011.8 -1 53
2019-07-30 17:00:00 26.6 36 Norte 54 Norte 0 1012 -1.2 53
2019-07-30 16:00:00 26.7 36 Norte 54 Norte 0 1012.4 -1.2 52
2019-07-30 15:00:00 26.8 36 Norte 52 Norte 0 1012.8 -1.1 51
2019-07-30 14:00:00 26 39 Norte 52 Norte 0 1013.2 -0.9 57
2019-07-30 13:00:00 25.1 33 Norte 52 Norte 0 1013.6 -0.3 58
2019-07-30 12:00:00 24.1 33 Norte 48 Norte 0 1013.9 0.5 65
2019-07-30 11:00:00 23.2 32 Norte 46 Norte 0 1014.1 1.2 69
2019-07-30 10:00:00 22.6 35 Norte 48 Norte 0 1013.9 1.4 72
2019-07-30 09:00:00 22.3 36 Norte 52 Norte 0 1013.4 1.2 74
2019-07-30 08:00:00 22.2 31 Norte 42 Norte 0 1012.9 0.6 73
2019-07-30 07:00:00 22.2 32 Norte 42 Norte 0 1012.5 0.3 74
2019-07-30 06:00:00 22.1 28 Norte 42 Norte 0 1012.2 -0.1 78
2019-07-30 05:00:00 22.3 32 Norte 48 Norte 0 1012.3 -0.5 77
2019-07-30 04:00:00 22.7 33 Norte 50 Norte 0 1012.2 -1.4 74
2019-07-30 03:00:00 22.8 30 Norte 46 Norte 0 1012.3 -1.5 78
2019-07-30 02:00:00 23.1 33 Norte 42 Norte 0 1012.8 -0.7 78
2019-07-30 01:00:00 22.9 31 Norte 41 Norte 0 1013.6 0.4 77
2019-07-30 00:00:00 23 31 Norte 46 Norte 0 1013.8 1.2 78
2019-07-29 23:00:00 22.8 32 Norte 45 Norte 0 1013.5 1.5 78
2019-07-29 22:00:00 23 34 Norte 46 Norte 0 1013.2 1.3 76
2019-07-29 21:00:00 23.5 34 Norte 48 Norte 0 1012.6 0.9 71
2019-07-29 20:00:00 25.1 34 Norte 48 Norte 0 1012 0.1 63
2019-07-29 19:00:00 26.4 34 Norte 48 Norte 0 1011.9 -0.2 56
2019-07-29 18:00:00 27.3 35 Norte 54 Norte 0 1011.7 -0.7 51
2019-07-29 17:00:00 27.8 39 Norte 48 Norte 0 1011.9 -0.8 51
2019-07-29 16:00:00 25.9 30 Nordeste 46 Nordeste 0 1012.1 -1 65
2019-07-29 15:00:00 25.8 32 Nordeste 45 Nordeste 0 1012.4 -0.9 63
2019-07-29 14:00:00 26.3 34 Nordeste 42 Nordeste 0 1012.7 -0.5 59
2019-07-29 13:00:00 26 31 Nordeste 41 Nordeste 0 1013.1 0.3 60
2019-07-29 12:00:00 25.7 32 Nordeste 42 Norte 0 1013.3 0.6 60
2019-07-29 11:00:00 24.5 33 Nordeste 41 Nordeste 0 1013.2 1.1 62
2019-07-29 10:00:00 23.3 27 Nordeste 41 Norte 0 1012.8 1.1 70
2019-07-29 09:00:00 22.7 32 Norte 45 Norte 0 1012.7 1.1 63
2019-07-29 08:00:00 22.3 29 Norte 39 Norte 0 1012.1 0.7 70
2019-07-29 07:00:00 22 27 Norte 35 Norte 0 1011.7 0.3 72
2019-07-29 06:00:00 22 25 Norte 37 Norte 0 1011.6 -0.1 74
2019-07-29 05:00:00 22.1 26 Norte 35 Norte 0 1011.4 -0.4 73
2019-07-29 04:00:00 22.2 26 Norte 41 Norte 0 1011.4 -0.6 68
2019-07-29 03:00:00 22.1 30 Norte 45 Norte 0 1011.7 -0.5 67
2019-07-29 02:00:00 22.5 31 Norte 41 Norte 0 1011.8 -0.1 67
2019-07-29 01:00:00 22.5 32 Norte 42 Norte 0 1012 0.4 68
2019-07-29 00:00:00 22.9 30 Norte 42 Norte 0 1012.2 1.3 67
2019-07-28 23:00:00 22.9 24 Norte 37 Norte 0 1011.9 1.5 67
2019-07-28 22:00:00 23 27 Norte 42 Norte 0 1011.6 2 69
2019-07-28 21:00:00 23.6 30 Norte 42 Norte 0 1010.9 1.4 67
2019-07-28 20:00:00 24.7 33 Norte 45 Norte 0 1010.4 0.9 65
2019-07-28 19:00:00 25.8 35 Norte 48 Norte 0 1009.6 -0.1 61
2019-07-28 18:00:00 26.1 27 Nordeste 46 Norte 0 1009.5 -0.6 63
2019-07-28 17:00:00 26.5 35 Norte 46 Norte 0 1009.5 -1 63
2019-07-28 16:00:00 26.5 37 Nordeste 48 Nordeste 0 1009.7 -1.4 67
2019-07-28 15:00:00 26.9 38 Nordeste 48 Nordeste 0 1010.1 -1.2 66
2019-07-28 14:00:00 26.8 31 Nordeste 42 Nordeste 0 1010.5 -1.1 66
2019-07-28 13:00:00 25.3 28 Nordeste 37 Nordeste 0 1011.1 -0.5 75
2019-07-28 12:00:00 24.3 22 Nordeste 32 Nordeste 0 1011.3 -0.1 80
2019-07-28 11:00:00 23.6 26 Nordeste 32 Nordeste 0 1011.6 0.4 83
2019-07-28 10:00:00 23.8 22 Norte 35 Norte 0 1011.6 0.6 77
2019-07-28 09:00:00 22.9 27 Norte 37 Norte 0 1011.4 0.8 80
2019-07-28 08:00:00 22.7 27 Norte 37 Norte 0 1011.2 0.3 82
2019-07-28 07:00:00 22.7 27 Norte 33 Norte 0 1011 -0.1 81
2019-07-28 06:00:00 22.6 24 Norte 33 Norte 0 1010.6 -1.3 81
2019-07-28 05:00:00 22.5 26 Norte 35 Norte 0 1010.9 -1.7 81
2019-07-28 04:00:00 22.4 23 Norte 33 Norte 0 1011.1 -1.9 80
2019-07-28 03:00:00 22.4 24 Norte 30 Norte 0 1011.9 -1.4 79
2019-07-28 02:00:00 22.4 20 Norte 30 Norte 0 1012.6 -0.8 78
2019-07-28 01:00:00 22.2 20 Norte 33 Norte 0 1013 -0.2 79
2019-07-28 00:00:00 21.8 26 Norte 39 Norte 0 1013.3 0.8 77
2019-07-27 23:00:00 21.9 26 Norte 39 Norte 0 1013.4 1.1 74
2019-07-27 22:00:00 22.3 29 Norte 41 Norte 0 1013.2 1 72
2019-07-26 11:00:00 24.3 27 Nordeste 45 Norte 0 1014.3 1.4 77
2019-07-26 10:00:00 23.6 35 Norte 42 Norte 0 1013.6 1 79
2019-07-26 09:00:00 22.7 31 Nordeste 41 Nordeste 0 1013.4 1.2 85
2019-07-26 08:00:00 21.8 23 Norte 32 Norte 0 1012.9 1 83
2019-07-26 07:00:00 21.7 22 Norte 30 Norte 0 1012.6 0.7 81
2019-07-26 06:00:00 22.1 21 Norte 30 Norte 0 1012.2 -0.6 77
2019-07-26 05:00:00 22.5 24 Norte 32 Norte 0 1011.9 -1.3 72
2019-07-26 04:00:00 22.6 21 Norte 30 Norte 0 1011.9 -2.3 67
2019-07-26 03:00:00 21.8 12 Norte 26 Norte 0 1012.8 -1.2 83
2019-07-26 02:00:00 21.9 19 Norte 26 Norte 0 1013.2 -0.2 82
2019-07-26 01:00:00 22.1 17 Norte 32 Norte 0 1014.2 1.8 84
2019-07-26 00:00:00 22.4 23 Nordeste 33 Nordeste 0 1014 2.3 85
2019-07-25 23:00:00 22.9 19 Norte 26 Norte 0 1013.4 2.1 80
2019-07-25 22:00:00 22.9 21 Nordeste 35 Nordeste 0 1012.4 1.2 86
2019-07-25 21:00:00 22.7 29 Nordeste 37 Nordeste 0 1011.7 0.5 86
2019-07-25 20:00:00 23.2 28 Nordeste 39 Nordeste 0 1011.3 0.3 83
2019-07-25 19:00:00 24 29 Nordeste 37 Nordeste 0 1011.2 -0.1 79
2019-07-25 18:00:00 24.6 26 Nordeste 35 Nordeste 0 1011.2 -0.2 77
2019-07-25 17:00:00 25.1 29 Nordeste 37 Nordeste 0 1011 -0.8 74
2019-07-25 16:00:00 25.1 27 Nordeste 42 Nordeste 0 1011.3 -1 75
2019-07-25 15:00:00 25.5 32 Nordeste 41 Nordeste 0 1011.4 -1.3 72
2019-07-25 14:00:00 25.6 26 Nordeste 33 Nordeste 0 1011.8 -0.3 72
2019-07-25 13:00:00 25.1 27 Nordeste 35 Nordeste 0 1012.3 0.1 72
2019-07-25 12:00:00 24.7 30 Nordeste 41 Nordeste 0 1012.7 1 73
2019-07-25 11:00:00 24.1 31 Norte 41 Norte 0 1012.1 1.1 75
2019-07-25 10:00:00 23.9 23 Nordeste 30 Nordeste 0 1012.2 1.7 76
2019-07-25 09:00:00 23.4 21 Norte 32 Norte 0 1011.7 1.8 70
2019-07-25 08:00:00 22.5 20 Norte 32 Norte 0 1011 0.4 62
2019-07-25 07:00:00 22.4 21 Norte 39 Norte 0 1010.5 -0.4 58
2019-07-25 06:00:00 22.3 25 Norte 33 Norte 0 1009.9 -1.4 57
2019-07-25 05:00:00 21.3 18 Norte 26 Norte 0 1010.6 -1.2 69
2019-07-25 04:00:00 21.1 17 Norte 22 Norte 0 1010.9 -1 76
2019-07-25 03:00:00 21.2 14 Norte 22 Norte 0 1011.3 -0.7 86
2019-07-25 02:00:00 21.5 16 Norte 24 Norte 0 1011.8 0.5 85
2019-07-25 01:00:00 21.9 19 Norte 28 Norte 0 1011.9 1 85
2019-07-25 00:00:00 22.4 19 Norte 32 Norte 0 1012 1.3 79
2019-07-24 23:00:00 22.9 19 Norte 30 Norte 0 1011.3 1 77
2019-07-24 22:00:00 23.2 20 Norte 37 Norte 0 1010.9 0.7 77
2019-07-24 21:00:00 22.8 22 Norte 33 Nordeste 0 1010.7 -0.3 85
2019-07-24 20:00:00 23.1 22 Nordeste 33 Nordeste 0 1010.3 -0.6 83
2019-07-24 19:00:00 23.9 27 Nordeste 35 Nordeste 0 1010.2 -0.5 79
2019-07-24 18:00:00 24.4 26 Nordeste 37 Nordeste 0 1011 0 76
2019-07-24 17:00:00 24.8 30 Nordeste 41 Nordeste 0 1010.9 0.2 75
2019-07-24 16:00:00 25.1 33 Nordeste 45 Nordeste 0 1010.7 -0.8 74
2019-07-24 15:00:00 25.1 32 Nordeste 41 Nordeste 0 1011 -0.7 73
2019-07-24 14:00:00 25.2 32 Nordeste 41 Nordeste 0 1010.7 -0.8 72
2019-07-24 13:00:00 24.9 26 Nordeste 33 Nordeste 0 1011.5 -0.2 71
2019-07-24 12:00:00 24.7 26 Nordeste 33 Nordeste 0 1011.7 0 68
2019-07-24 11:00:00 23.7 24 Nordeste 30 Nordeste 0 1011.5 0.4 71
2019-07-24 10:00:00 22.9 23 Nordeste 35 Norte 0 1011.7 0.7 76
2019-07-24 09:00:00 21.8 19 Norte 30 Nordeste 0 1011.7 0.9 81
2019-07-24 08:00:00 21.6 18 Norte 30 Nordeste 0 1011.1 0.3 82
2019-07-24 07:00:00 21.6 21 Norte 28 Norte 0 1011 0.1 82
2019-07-24 06:00:00 21.7 20 Norte 30 Norte 0 1010.8 -0.7 81
2019-07-24 05:00:00 21.7 24 Norte 32 Norte 0 1010.8 -1.4 81
2019-07-24 04:00:00 21.5 22 Norte 33 Norte 0 1010.9 -1.7 82
2019-07-24 03:00:00 21.6 24 Norte 32 Norte 0 1011.5 -1.6 81
2019-07-24 02:00:00 21.2 24 Norte 37 Norte 0 1012.2 -1.2 81
2019-07-24 01:00:00 21.2 29 Norte 39 Norte 0 1012.6 -0.1 80
2019-07-24 00:00:00 21.5 31 Norte 45 Norte 0 1013.1 0.8 77